Elat'Ma, Russia
Current Conditions -  °F | °C
As of 1:00 AM on Monday 26 Jan 2015 (Local Time) from UWGG Reporting Station
Clear Clear  
Wind Chill: -10°   Ceiling: Unl
Heat Index:   Visibility: 6mi
Dew Point: -6°   Wind: 13mph
Humidity: 56%   Direction: 170°S
Pressure: 30.56"   Gusts: NA
Location:  54.95°N, 41.77°E
Report Text: UWGG 252200Z 17006MPS CAVOK M14/M21 Q1035 NOSIG 18820042 RMKQFE769
Loading
Personal Weather Stations






























Interactive Weather Map New forecast layout! Learn more

10-Day Weather Forecast

Advertisements
Track Severe Weather on mobile